Time;durP1;ratioP1;P1;durP2;ratioP2;P2;SDS_P1;SDS_P2;PMS_P1;PMS_P2;Temp;Humidity;BMP_temperature;BMP_pressure;BME280_temperature;BME280_humidity;BME280_pressure;Samples;Min_cycle;Max_cycle;Signal;HPM_P1;HPM_P2
2022/04/12 00:00:55;;;;;;;8.45;4.60;;;;;;;6.92;60.37;100400.78;5077114;28;20256;-71
2022/04/12 00:03:20;;;;;;;12.25;4.95;;;;;;;6.94;60.98;100393.59;5079740;28;20040;-71
2022/04/12 00:05:47;;;;;;;8.30;4.88;;;;;;;6.94;60.54;100394.44;5078752;28;20025;-71
2022/04/12 00:08:12;;;;;;;11.20;5.35;;;;;;;6.91;60.54;100386.78;5076706;28;20020;-71
2022/04/12 00:10:39;;;;;;;10.77;4.70;;;;;;;6.89;60.57;100387.84;5080014;28;20047;-74
2022/04/12 00:13:05;;;;;;;11.65;4.47;;;;;;;6.97;59.67;100390.72;5079233;28;20036;-74
2022/04/12 00:15:30;;;;;;;8.93;4.70;;;;;;;6.90;60.73;100377.19;5080281;28;20047;-71
2022/04/12 00:20:41;;;;;;;7.90;3.83;;;;;;;7.18;59.64;100383.72;5078979;28;20365;-71
2022/04/12 00:23:06;;;;;;;7.25;4.38;;;;;;;7.04;60.19;100384.81;5079043;28;20020;-72
2022/04/12 00:25:32;;;;;;;8.52;4.60;;;;;;;6.97;60.62;100395.97;5077744;28;20099;-71
2022/04/12 00:27:59;;;;;;;8.23;4.18;;;;;;;6.86;61.05;100396.84;5079154;28;20047;-73
2022/04/12 00:30:27;;;;;;;8.27;4.72;;;;;;;6.88;60.79;100380.91;5076820;28;20040;-74
2022/04/12 00:32:53;;;;;;;7.50;4.47;;;;;;;6.89;61.24;100387.84;5081329;28;20028;-73
2022/04/12 00:35:20;;;;;;;9.68;4.80;;;;;;;6.79;61.26;100385.13;5079826;28;20031;-71
2022/04/12 00:37:47;;;;;;;7.60;4.70;;;;;;;6.92;60.58;100383.19;5078711;28;20078;-71
2022/04/12 00:40:13;;;;;;;10.40;4.65;;;;;;;6.90;61.10;100381.63;5078861;28;20046;-74
2022/04/12 00:42:39;;;;;;;9.82;4.57;;;;;;;6.71;61.19;100384.91;5078349;28;20319;-72
2022/04/12 00:45:06;;;;;;;9.63;4.72;;;;;;;6.86;61.31;100391.56;5078582;28;20028;-74
2022/04/12 00:47:31;;;;;;;6.88;4.60;;;;;;;6.81;60.78;100385.00;5079643;28;20039;-71
2022/04/12 00:49:57;;;;;;;9.75;4.47;;;;;;;6.73;61.24;100393.50;5078135;28;20028;-71
2022/04/12 00:52:22;;;;;;;6.35;4.35;;;;;;;6.87;61.21;100379.25;5078456;28;20024;-74
2022/04/12 00:54:49;;;;;;;7.70;4.88;;;;;;;6.79;61.06;100386.91;5079751;28;20028;-74
2022/04/12 00:57:15;;;;;;;8.80;4.40;;;;;;;6.71;60.63;100383.09;5079441;28;20046;-71
2022/04/12 00:59:43;;;;;;;6.85;4.15;;;;;;;6.52;62.10;100387.31;5078956;28;20043;-74
2022/04/12 01:02:09;;;;;;;10.02;5.03;;;;;;;6.49;62.17;100383.13;5080486;28;20361;-71
2022/04/12 01:04:34;;;;;;;10.50;6.03;;;;;;;6.47;62.01;100384.19;5079824;28;20040;-74
2022/04/12 01:07:01;;;;;;;13.63;6.18;;;;;;;6.29;62.32;100382.06;5078320;28;20051;-71
2022/04/12 01:09:27;;;;;;;12.07;5.38;;;;;;;6.22;62.30;100372.09;5079213;28;20083;-74
2022/04/12 01:11:57;;;;;;;8.20;4.80;;;;;;;6.30;62.71;100385.50;5077841;28;20345;-71
2022/04/12 01:14:24;;;;;;;10.13;4.43;;;;;;;6.41;62.26;100377.63;5076009;28;20108;-71
2022/04/12 01:16:50;;;;;;;9.82;4.60;;;;;;;6.53;61.21;100383.72;5079467;28;20031;-73
2022/04/12 01:19:15;;;;;;;9.25;4.45;;;;;;;6.47;61.50;100384.19;5078764;28;20045;-71
2022/04/12 01:21:54;;;;;;;13.52;4.60;;;;;;;6.39;61.65;100383.00;5078032;28;20031;-71
2022/04/12 01:24:20;;;;;;;6.32;3.90;;;;;;;6.49;61.61;100385.75;5075926;28;20047;-74
2022/04/12 01:26:46;;;;;;;10.65;4.82;;;;;;;6.54;61.28;100375.69;5078864;28;20314;-74
2022/04/12 01:29:12;;;;;;;8.55;4.65;;;;;;;6.55;61.41;100382.63;5078137;28;20032;-71
2022/04/12 01:31:38;;;;;;;8.65;4.43;;;;;;;6.29;62.27;100376.78;5078009;28;20261;-71
2022/04/12 01:34:03;;;;;;;8.93;4.50;;;;;;;6.46;61.10;100372.84;5078559;28;20033;-71
2022/04/12 01:36:29;;;;;;;10.85;4.82;;;;;;;6.53;61.14;100388.97;5075988;28;20073;-73
2022/04/12 01:38:54;;;;;;;9.25;4.82;;;;;;;6.39;61.86;100387.44;5077057;28;20031;-71
2022/04/12 01:41:20;;;;;;;11.52;5.03;;;;;;;6.27;62.09;100376.06;5077634;28;20036;-74
2022/04/12 01:43:45;;;;;;;7.85;4.40;;;;;;;6.28;61.82;100383.00;5077080;28;20103;-73
2022/04/12 01:46:11;;;;;;;7.28;4.47;;;;;;;6.28;61.89;100385.63;5077642;28;20221;-74
2022/04/12 01:48:36;;;;;;;12.52;5.72;;;;;;;6.21;62.14;100387.03;5078189;28;20092;-71
2022/04/12 01:51:01;;;;;;;9.63;5.03;;;;;;;6.21;61.74;100389.66;5078512;28;20044;-71
2022/04/12 01:53:27;;;;;;;9.77;4.97;;;;;;;6.19;62.32;100381.06;5079942;28;20032;-72
2022/04/12 01:55:52;;;;;;;10.68;4.53;;;;;;;6.30;61.65;100380.25;5081831;28;20083;-72
2022/04/12 01:58:18;;;;;;;10.57;4.50;;;;;;;6.17;62.42;100379.50;5083098;28;20039;-71
2022/04/12 02:00:43;;;;;;;11.55;4.60;;;;;;;6.13;62.00;100380.69;5083953;28;20024;-74
2022/04/12 02:03:09;;;;;;;8.15;4.88;;;;;;;6.18;62.53;100386.44;5082242;28;20096;-71
2022/04/12 02:05:35;;;;;;;9.02;4.75;;;;;;;6.11;62.11;100365.03;5082288;28;20028;-74
2022/04/12 02:08:01;;;;;;;10.18;5.95;;;;;;;6.21;62.02;100370.41;5081506;28;20322;-74
2022/04/12 02:10:26;;;;;;;9.90;4.93;;;;;;;6.16;62.46;100386.56;5081099;28;20052;-72
2022/04/12 02:12:52;;;;;;;10.60;4.93;;;;;;;6.19;61.75;100359.19;5082137;28;20025;-74
2022/04/12 02:15:18;;;;;;;13.40;5.38;;;;;;;6.19;62.35;100381.06;5081240;28;20029;-74
2022/04/12 02:17:43;;;;;;;7.68;5.00;;;;;;;6.04;62.67;100379.59;5082046;28;20054;-71
2022/04/12 02:20:09;;;;;;;9.23;4.68;;;;;;;6.29;61.85;100375.94;5080948;28;20127;-71
2022/04/12 02:22:36;;;;;;;10.25;4.53;;;;;;;6.56;60.83;100384.31;5081347;28;20047;-74
2022/04/12 02:25:02;;;;;;;9.73;4.95;;;;;;;6.35;62.01;100380.72;5083087;28;20248;-73
2022/04/12 02:27:28;;;;;;;11.60;5.55;;;;;;;6.40;61.78;100378.59;5082570;28;20349;-73
2022/04/12 02:29:53;;;;;;;14.77;6.82;;;;;;;6.30;61.89;100365.31;5081082;28;20032;-74
2022/04/12 02:32:18;;;;;;;11.02;5.45;;;;;;;6.57;60.55;100385.16;5081842;28;20027;-71
2022/04/12 02:34:44;;;;;;;13.10;5.00;;;;;;;6.37;61.82;100384.09;5080742;28;20446;-71
2022/04/12 02:37:09;;;;;;;8.98;4.70;;;;;;;6.45;60.71;100388.75;5082002;28;20206;-71
2022/04/12 02:39:35;;;;;;;8.88;4.30;;;;;;;6.30;62.00;100386.34;5080985;28;20078;-71
2022/04/12 02:42:01;;;;;;;9.40;4.70;;;;;;;6.42;60.88;100379.28;5078735;28;20370;-72
2022/04/12 02:44:26;;;;;;;7.15;3.80;;;;;;;6.45;61.48;100386.94;5080468;28;20040;-71
2022/04/12 02:46:52;;;;;;;9.32;4.90;;;;;;;6.43;61.23;100388.03;5078450;28;20028;-74
2022/04/12 02:49:17;;;;;;;9.35;4.43;;;;;;;6.48;61.20;100389.34;5080822;28;20036;-71
2022/04/12 02:51:43;;;;;;;12.50;4.55;;;;;;;6.71;59.88;100393.63;5081240;28;20065;-74
2022/04/12 02:54:08;;;;;;;9.27;5.13;;;;;;;6.81;59.21;100395.53;5080681;28;20024;-74
2022/04/12 02:56:34;;;;;;;11.45;5.40;;;;;;;6.94;58.95;100402.31;5081355;28;20036;-74
2022/04/12 02:58:59;;;;;;;8.63;5.60;;;;;;;6.83;60.06;100404.97;5080379;28;20544;-74
2022/04/12 03:01:25;;;;;;;8.70;5.53;;;;;;;6.61;60.36;100399.75;5080874;28;20274;-74
2022/04/12 03:03:52;;;;;;;11.77;4.85;;;;;;;6.77;60.38;100408.09;5080109;28;20046;-74
2022/04/12 03:06:17;;;;;;;10.40;4.80;;;;;;;6.94;59.64;100404.97;5081766;28;20099;-71
2022/04/12 03:08:43;;;;;;;7.88;5.22;;;;;;;6.72;59.62;100397.09;5081785;28;20115;-71
2022/04/12 03:11:08;;;;;;;8.93;5.18;;;;;;;6.68;59.55;100408.81;5080866;28;20028;-72
2022/04/12 03:13:33;;;;;;;7.60;4.55;;;;;;;6.86;59.47;100402.09;5080021;28;20037;-71
2022/04/12 03:15:59;;;;;;;9.80;5.32;;;;;;;6.61;59.87;100402.38;5080207;28;20040;-74
2022/04/12 03:18:24;;;;;;;11.40;5.28;;;;;;;6.60;60.18;100400.69;5079604;28;20024;-74
2022/04/12 03:20:51;;;;;;;16.90;6.53;;;;;;;6.82;59.03;100405.94;5082619;28;20108;-74
2022/04/12 03:23:18;;;;;;;10.57;5.43;;;;;;;6.56;59.59;100404.53;5080951;28;20258;-73
2022/04/12 03:25:44;;;;;;;10.10;5.07;;;;;;;6.52;59.43;100408.34;5080446;28;20051;-74
2022/04/12 03:28:10;;;;;;;10.57;5.15;;;;;;;6.40;59.84;100408.34;5080593;28;20016;-72
2022/04/12 03:30:36;;;;;;;11.35;5.68;;;;;;;6.43;60.66;100403.81;5082231;28;20319;-74
2022/04/12 03:33:02;;;;;;;10.90;4.80;;;;;;;6.48;60.20;100412.19;5079760;28;20040;-74
2022/04/12 03:35:28;;;;;;;13.13;5.53;;;;;;;6.59;60.07;100414.81;5080282;28;20319;-71
2022/04/12 03:37:53;;;;;;;11.90;5.93;;;;;;;6.66;59.52;100414.22;5079562;28;20043;-71
2022/04/12 03:40:21;;;;;;;12.57;5.32;;;;;;;6.46;59.94;100414.09;5080350;28;20028;-74
2022/04/12 03:42:47;;;;;;;15.30;5.82;;;;;;;6.67;59.30;100402.72;5079970;28;20241;-74
2022/04/12 03:45:12;;;;;;;10.23;6.15;;;;;;;6.44;60.54;100408.13;5079343;28;20036;-71
2022/04/12 03:47:38;;;;;;;16.13;6.85;;;;;;;6.20;61.05;100419.53;5080858;28;20024;-71
2022/04/12 03:50:04;;;;;;;15.93;7.35;;;;;;;6.37;60.55;100413.00;5079189;28;20055;-71
2022/04/12 03:52:29;;;;;;;14.95;6.80;;;;;;;6.20;60.70;100411.66;5079409;28;20302;-71
2022/04/12 03:54:55;;;;;;;14.40;7.70;;;;;;;6.44;60.08;100414.22;5080357;28;20095;-74
2022/04/12 03:57:20;;;;;;;13.25;7.03;;;;;;;6.59;59.51;100420.06;5079044;28;20097;-72
2022/04/12 03:59:46;;;;;;;14.13;6.93;;;;;;;6.54;60.22;100420.44;5079846;28;20378;-73
2022/04/12 04:02:11;;;;;;;14.52;7.05;;;;;;;6.56;59.71;100415.88;5078709;28;20358;-74
2022/04/12 04:04:36;;;;;;;19.17;6.72;;;;;;;6.49;60.33;100421.75;5078958;28;20033;-72
2022/04/12 04:07:02;;;;;;;14.68;7.60;;;;;;;6.29;60.63;100410.97;5080221;28;20029;-72
2022/04/12 04:09:27;;;;;;;15.63;7.03;;;;;;;6.29;60.57;100424.13;5079110;28;20047;-71
2022/04/12 04:11:53;;;;;;;21.67;7.65;;;;;;;6.37;60.75;100416.47;5079773;28;20024;-74
2022/04/12 04:14:18;;;;;;;16.52;7.95;;;;;;;6.35;60.50;100418.41;5078515;28;20040;-74
2022/04/12 04:16:44;;;;;;;14.23;6.93;;;;;;;6.34;60.75;100421.16;5078058;28;20047;-74
2022/04/12 04:19:09;;;;;;;16.95;7.60;;;;;;;6.38;60.86;100418.16;5079639;28;20043;-72
2022/04/12 04:21:38;;;;;;;18.25;6.90;;;;;;;6.45;60.53;100426.41;5078554;28;20115;-71
2022/04/12 04:24:04;;;;;;;13.95;6.88;;;;;;;6.39;60.92;100424.25;5075969;28;20087;-74
2022/04/12 04:26:30;;;;;;;14.57;6.60;;;;;;;6.49;60.02;100419.94;5079546;28;20024;-72
2022/04/12 04:28:56;;;;;;;16.95;7.00;;;;;;;6.43;59.92;100411.69;5078734;28;20063;-71
2022/04/12 04:31:22;;;;;;;14.38;7.85;;;;;;;6.57;60.01;100424.63;5079322;28;20036;-72
2022/04/12 04:33:47;;;;;;;22.38;8.38;;;;;;;6.49;59.82;100435.75;5078331;28;20052;-72
2022/04/12 04:36:13;;;;;;;14.05;7.47;;;;;;;6.55;60.28;100435.25;5076732;28;20314;-76
2022/04/12 04:38:38;;;;;;;17.85;8.82;;;;;;;6.45;60.29;100434.31;5079496;28;20032;-74
2022/04/12 04:41:04;;;;;;;14.23;6.82;;;;;;;6.48;60.29;100433.22;5078278;28;20028;-76
2022/04/12 04:43:29;;;;;;;13.85;6.25;;;;;;;6.46;59.98;100435.97;5077693;28;20264;-71
2022/04/12 04:45:55;;;;;;;16.92;6.95;;;;;;;6.52;60.32;100432.03;5078353;28;20033;-75
2022/04/12 04:48:21;;;;;;;19.80;8.32;;;;;;;6.68;59.81;100428.09;5078532;28;20330;-71
2022/04/12 04:50:46;;;;;;;23.02;7.45;;;;;;;6.65;60.42;100436.22;5079082;28;20052;-75
2022/04/12 04:53:12;;;;;;;15.95;7.07;;;;;;;6.84;59.69;100434.78;5076879;28;20031;-75
2022/04/12 04:55:42;;;;;;;16.13;7.25;;;;;;;7.10;59.11;100432.69;5079274;28;20040;-71
2022/04/12 04:58:08;;;;;;;15.38;7.35;;;;;;;6.90;59.57;100435.13;5079527;28;20028;-75
2022/04/12 05:00:34;;;;;;;18.63;7.75;;;;;;;7.04;60.00;100440.13;5077367;28;20062;-72
2022/04/12 05:03:01;;;;;;;17.92;7.72;;;;;;;7.22;59.35;100450.13;5077213;28;20032;-72
2022/04/12 05:05:27;;;;;;;18.02;8.13;;;;;;;7.24;58.94;100433.25;5077045;28;20207;-72
2022/04/12 05:07:54;;;;;;;20.83;7.63;;;;;;;7.54;58.14;100448.41;5077437;28;20071;-74
2022/04/12 05:10:31;;;;;;;16.27;7.13;;;;;;;7.76;57.32;100446.63;5076201;28;20326;-72
2022/04/12 05:12:58;;;;;;;13.13;6.80;;;;;;;8.28;55.48;100454.50;5077608;28;20063;-72
2022/04/12 05:15:24;;;;;;;17.75;8.10;;;;;;;8.50;54.92;100455.34;5075847;28;20028;-74
2022/04/12 05:17:54;;;;;;;18.60;7.38;;;;;;;8.78;54.46;100446.72;5078009;28;20082;-72
2022/04/12 05:20:22;;;;;;;12.18;7.00;;;;;;;8.72;54.05;100457.81;5077825;28;20347;-74
2022/04/12 05:22:48;;;;;;;19.60;7.75;;;;;;;8.54;54.41;100427.72;5077225;28;20033;-75
2022/04/12 05:25:14;;;;;;;16.42;7.40;;;;;;;8.94;53.80;100462.91;5076401;28;20086;-75
2022/04/12 05:27:41;;;;;;;17.80;8.40;;;;;;;9.22;52.95;100465.75;5080592;28;20309;-74
2022/04/12 05:30:08;;;;;;;15.35;6.85;;;;;;;9.23;52.39;100468.28;5080806;28;20365;-74
2022/04/12 05:32:37;;;;;;;17.75;7.68;;;;;;;9.28;52.27;100467.88;5081138;28;20044;-75
2022/04/12 05:35:05;;;;;;;19.17;7.55;;;;;;;9.54;51.61;100469.03;5081568;28;20272;-73
2022/04/12 05:37:31;;;;;;;18.00;7.72;;;;;;;9.95;51.13;100463.63;5081234;28;21767;-72
2022/04/12 05:39:57;;;;;;;14.57;7.22;;;;;;;10.10;51.02;100457.75;5081168;28;20048;-75
2022/04/12 05:42:25;;;;;;;27.83;7.68;;;;;;;10.22;51.27;100446.06;5081676;28;20348;-75
2022/04/12 05:44:51;;;;;;;16.75;6.97;;;;;;;10.81;50.51;100447.56;5080747;28;20326;-75
2022/04/12 05:47:16;;;;;;;19.58;7.25;;;;;;;10.99;49.54;100447.63;5081058;28;20024;-72
2022/04/12 05:49:41;;;;;;;12.65;6.80;;;;;;;11.71;47.90;100438.78;5079820;28;20021;-72
2022/04/12 05:52:10;;;;;;;23.90;9.52;;;;;;;11.81;46.05;100446.69;5080789;28;20031;-74
2022/04/12 05:54:36;;;;;;;19.35;7.72;;;;;;;12.03;46.24;100438.25;5081394;28;20048;-75
2022/04/12 05:57:01;;;;;;;21.27;7.68;;;;;;;11.90;46.10;100436.97;5080614;28;20032;-75
2022/04/12 05:59:26;;;;;;;9.73;5.45;;;;;;;12.45;44.50;100446.31;5080406;28;20039;-72
2022/04/12 06:01:52;;;;;;;12.25;5.55;;;;;;;12.64;45.00;100447.13;5078636;28;20044;-76
2022/04/12 06:04:17;;;;;;;13.93;5.55;;;;;;;12.71;44.31;100438.38;5078743;28;20040;-73
2022/04/12 06:06:43;;;;;;;8.43;4.45;;;;;;;12.80;42.83;100436.56;5080182;28;20058;-72
2022/04/12 06:09:08;;;;;;;13.25;5.20;;;;;;;12.87;42.67;100448.22;5080430;28;20352;-74
2022/04/12 06:11:35;;;;;;;10.88;4.80;;;;;;;12.80;42.88;100447.22;5080216;28;20028;-72
2022/04/12 06:14:00;;;;;;;7.75;4.78;;;;;;;12.72;42.47;100444.50;5080864;28;20032;-75
2022/04/12 06:16:26;;;;;;;10.88;5.00;;;;;;;12.86;41.53;100443.91;5081999;28;20036;-72
2022/04/12 06:18:52;;;;;;;8.70;5.28;;;;;;;13.21;42.47;100450.03;5081021;28;20257;-74
2022/04/12 06:21:18;;;;;;;11.05;5.28;;;;;;;13.36;41.83;100449.25;5081308;28;20259;-73
2022/04/12 06:23:44;;;;;;;9.75;4.50;;;;;;;13.44;40.75;100453.75;5082613;28;20035;-75
2022/04/12 06:26:10;;;;;;;9.60;5.20;;;;;;;13.86;39.71;100453.66;5082448;28;20275;-74
2022/04/12 06:28:35;;;;;;;12.25;4.65;;;;;;;14.01;38.52;100448.50;5083807;28;20070;-75
2022/04/12 06:31:01;;;;;;;11.70;3.95;;;;;;;14.14;38.14;100424.88;5082862;28;20090;-75
2022/04/12 06:33:27;;;;;;;7.18;3.60;;;;;;;14.06;37.90;100452.34;5083175;28;20070;-75
2022/04/12 06:35:52;;;;;;;15.55;5.18;;;;;;;13.86;36.91;100458.16;5083119;28;20040;-72
2022/04/12 06:38:21;;;;;;;11.00;3.70;;;;;;;13.67;37.27;100454.81;5082628;28;20032;-73
2022/04/12 06:40:49;;;;;;;6.60;3.30;;;;;;;13.54;37.66;100446.50;5082880;28;20037;-73
2022/04/12 06:43:15;;;;;;;5.75;3.30;;;;;;;14.06;36.75;100441.69;5083409;28;20418;-74
2022/04/12 06:45:40;;;;;;;7.45;3.50;;;;;;;13.85;37.58;100441.34;5082733;28;20231;-72
2022/04/12 06:48:06;;;;;;;7.28;3.30;;;;;;;13.99;37.35;100458.50;5083433;28;20177;-72
2022/04/12 06:50:32;;;;;;;7.53;3.33;;;;;;;14.41;36.77;100458.28;5081565;28;20036;-75
2022/04/12 06:52:58;;;;;;;8.63;3.35;;;;;;;14.03;36.29;100450.00;5082673;28;20035;-74
2022/04/12 06:55:24;;;;;;;9.00;3.83;;;;;;;14.54;37.02;100455.97;5082743;28;20107;-73
2022/04/12 06:57:49;;;;;;;9.73;3.42;;;;;;;15.11;35.87;100466.47;5083455;28;20052;-73
2022/04/12 07:00:17;;;;;;;12.75;3.05;;;;;;;14.52;34.39;100446.47;5083371;28;20055;-75
2022/04/12 07:02:43;;;;;;;4.93;2.50;;;;;;;14.46;34.10;100466.63;5081427;28;20044;-73
2022/04/12 07:05:09;;;;;;;8.10;3.25;;;;;;;14.80;34.84;100460.25;5083315;28;20115;-75
2022/04/12 07:07:36;;;;;;;5.25;2.70;;;;;;;15.20;35.04;100456.56;5083476;28;20024;-73
2022/04/12 07:10:03;;;;;;;7.00;3.05;;;;;;;14.73;35.02;100452.09;5082349;28;20078;-76
2022/04/12 07:12:29;;;;;;;8.32;2.72;;;;;;;15.32;33.82;100458.69;5079475;28;20042;-75
2022/04/12 07:14:54;;;;;;;9.68;3.30;;;;;;;15.34;32.92;100451.31;5078472;28;20036;-75
2022/04/12 07:17:20;;;;;;;10.57;3.40;;;;;;;16.10;33.31;100459.53;5078358;28;20032;-73
2022/04/12 07:19:46;;;;;;;6.15;3.30;;;;;;;16.50;31.51;100460.97;5077281;28;20074;-75
2022/04/12 07:22:11;;;;;;;7.00;2.88;;;;;;;16.34;31.17;100467.31;5078580;28;20095;-75
2022/04/12 07:24:36;;;;;;;4.07;2.80;;;;;;;16.66;31.62;100465.38;5079945;28;20318;-75
2022/04/12 07:27:02;;;;;;;6.13;2.80;;;;;;;16.46;31.73;100459.69;5078190;28;21808;-75
2022/04/12 07:29:28;;;;;;;8.60;2.90;;;;;;;16.86;31.77;100455.78;5079550;28;20082;-73
2022/04/12 07:31:53;;;;;;;3.20;2.05;;;;;;;16.70;30.77;100464.00;5079834;28;20091;-74
2022/04/12 07:34:19;;;;;;;6.53;2.67;;;;;;;16.71;30.94;100457.63;5078604;28;20049;-75
2022/04/12 07:36:47;;;;;;;3.92;2.15;;;;;;;16.78;28.43;100447.84;5078428;28;20191;-75
2022/04/12 07:39:15;;;;;;;8.07;2.60;;;;;;;16.21;29.82;100465.25;5078404;28;20443;-75
2022/04/12 07:41:41;;;;;;;13.23;3.03;;;;;;;16.75;29.72;100454.41;5077624;28;21422;-73
2022/04/12 07:44:06;;;;;;;5.40;2.78;;;;;;;17.04;29.80;100448.19;5077851;28;20043;-73
2022/04/12 07:46:32;;;;;;;9.75;2.67;;;;;;;16.69;29.09;100457.00;5076760;28;20055;-74
2022/04/12 07:48:57;;;;;;;7.55;2.20;;;;;;;16.75;29.62;100448.22;5077560;28;20045;-73
2022/04/12 07:51:23;;;;;;;3.88;2.25;;;;;;;16.25;28.93;100452.38;5075419;28;20095;-74
2022/04/12 07:53:48;;;;;;;6.88;2.22;;;;;;;16.78;28.93;100451.38;5078326;28;20038;-73
2022/04/12 07:56:14;;;;;;;4.95;2.58;;;;;;;17.07;28.17;100447.00;5078095;28;21099;-72
2022/04/12 07:58:39;;;;;;;6.78;2.85;;;;;;;17.22;27.95;100445.13;5078139;28;20070;-75
2022/04/12 08:01:05;;;;;;;4.15;2.72;;;;;;;17.28;28.48;100447.03;5078738;28;20091;-73
2022/04/12 08:03:30;;;;;;;8.52;3.08;;;;;;;17.43;28.70;100455.03;5078662;28;20046;-74
2022/04/12 08:05:56;;;;;;;5.93;3.20;;;;;;;17.30;27.94;100420.09;5077490;28;20230;-75
2022/04/12 08:08:21;;;;;;;6.88;3.00;;;;;;;17.30;28.32;100447.69;5079045;28;20059;-72
2022/04/12 08:10:47;;;;;;;5.03;3.15;;;;;;;17.62;28.59;100453.59;5077796;28;20042;-74
2022/04/12 08:13:12;;;;;;;5.65;2.70;;;;;;;17.99;27.70;100453.38;5078665;28;20036;-75
2022/04/12 08:15:38;;;;;;;3.40;2.22;;;;;;;17.46;25.68;100446.63;5078429;28;20086;-73
2022/04/12 08:18:06;;;;;;;5.63;2.83;;;;;;;17.20;27.51;100433.78;5078394;28;20091;-73
2022/04/12 08:20:32;;;;;;;5.15;1.98;;;;;;;17.39;27.98;100440.38;5077863;28;20051;-74
2022/04/12 08:22:58;;;;;;;6.32;3.08;;;;;;;17.43;27.42;100434.44;5077164;28;20214;-74
2022/04/12 08:25:24;;;;;;;7.15;2.80;;;;;;;17.78;27.16;100414.03;5077678;28;20057;-74
2022/04/12 08:27:50;;;;;;;5.60;2.50;;;;;;;18.12;26.96;100415.97;5079112;28;20039;-75
2022/04/12 08:30:16;;;;;;;3.47;2.50;;;;;;;17.64;26.54;100414.88;5077629;28;20040;-73
2022/04/12 08:32:41;;;;;;;6.93;2.63;;;;;;;18.14;27.91;100421.97;5078046;28;20036;-75
2022/04/12 08:35:07;;;;;;;3.33;2.40;;;;;;;17.39;26.30;100397.53;5078564;28;20082;-74
2022/04/12 08:37:33;;;;;;;5.72;2.08;;;;;;;17.48;26.54;100426.69;5076462;28;20241;-74
2022/04/12 08:39:58;;;;;;;3.78;2.33;;;;;;;17.40;25.81;100415.25;5077309;28;20029;-75
2022/04/12 08:42:24;;;;;;;7.72;2.40;;;;;;;17.43;26.93;100412.19;5078822;28;20040;-74
2022/04/12 08:44:50;;;;;;;3.33;1.90;;;;;;;17.38;27.05;100407.41;5077486;28;20044;-73
2022/04/12 08:47:18;;;;;;;5.45;2.30;;;;;;;17.35;27.52;100415.00;5078083;28;20045;-73
2022/04/12 08:49:44;;;;;;;6.78;2.25;;;;;;;17.33;26.40;100417.88;5077833;28;20051;-73
2022/04/12 08:52:11;;;;;;;4.30;2.17;;;;;;;17.40;24.84;100420.63;5077568;28;20025;-73
2022/04/12 08:54:41;;;;;;;3.45;2.05;;;;;;;17.72;25.78;100412.13;5077559;28;20105;-75
2022/04/12 08:57:08;;;;;;;10.73;2.50;;;;;;;17.31;26.94;100405.69;5078209;28;20040;-73
2022/04/12 08:59:33;;;;;;;5.07;2.05;;;;;;;17.20;27.69;100401.66;5076948;28;20052;-74
2022/04/12 09:01:59;;;;;;;4.53;2.25;;;;;;;17.32;26.18;100397.47;5075697;28;20032;-73
2022/04/12 09:04:28;;;;;;;3.58;2.17;;;;;;;17.54;28.55;100399.13;5078373;28;20081;-73
2022/04/12 09:06:55;;;;;;;4.93;2.70;;;;;;;17.56;27.46;100405.13;5077073;28;20313;-73
2022/04/12 09:09:24;;;;;;;6.03;2.50;;;;;;;17.50;27.89;100402.38;5075793;28;20323;-73
2022/04/12 09:11:58;;;;;;;4.18;2.55;;;;;;;17.82;26.38;100395.75;5077993;28;20104;-73
2022/04/12 09:14:25;;;;;;;3.67;2.17;;;;;;;17.58;27.93;100396.91;5077229;28;20318;-73
2022/04/12 09:16:52;;;;;;;4.63;2.33;;;;;;;17.56;27.38;100391.75;5079407;28;20041;-75
2022/04/12 09:19:51;;;;;;;6.80;2.33;;;;;;;17.74;26.91;100386.00;5078101;28;20281;-73
2022/04/12 09:22:25;;;;;;;4.35;1.83;;;;;;;18.33;26.70;100384.78;5076517;28;20055;-73
2022/04/12 09:24:57;;;;;;;5.13;2.55;;;;;;;18.18;26.59;100353.53;5077924;28;20040;-75
2022/04/12 09:27:24;;;;;;;3.67;2.20;;;;;;;18.36;27.23;100366.44;5075606;28;20035;-73
2022/04/12 09:30:11;;;;;;;5.63;2.60;;;;;;;18.19;26.61;100376.66;5076506;28;20032;-75
2022/04/12 09:32:38;;;;;;;7.07;2.80;;;;;;;17.85;26.33;100374.75;5076541;28;20024;-75
2022/04/12 09:35:05;;;;;;;3.45;2.67;;;;;;;17.70;26.91;100374.00;5075930;28;20023;-75
2022/04/12 09:37:33;;;;;;;5.32;2.70;;;;;;;17.42;27.07;100381.94;5077465;28;20044;-75
2022/04/12 09:39:58;;;;;;;4.35;2.10;;;;;;;17.70;27.19;100375.84;5077180;28;20028;-75
2022/04/12 09:42:43;;;;;;;5.43;2.83;;;;;;;17.81;28.37;100364.63;5078099;28;20048;-73
2022/04/12 09:45:22;;;;;;;4.45;2.08;;;;;;;17.81;28.10;100365.44;5076490;28;20029;-73
2022/04/12 09:47:50;;;;;;;4.50;2.10;;;;;;;17.27;26.53;100358.91;5092758;28;20028;-75
2022/04/12 09:50:15;;;;;;;7.70;2.30;;;;;;;17.18;28.79;100353.69;5077207;28;20342;-73
2022/04/12 09:52:53;;;;;;;7.05;2.58;;;;;;;17.12;28.25;100358.97;5076781;28;20074;-74
2022/04/12 09:55:52;;;;;;;5.10;2.45;;;;;;;17.02;28.58;100342.38;5076642;28;20050;-75
2022/04/12 09:58:21;;;;;;;2.58;2.08;;;;;;;17.36;28.27;100337.19;5054078;28;20107;-73
2022/04/12 10:00:49;;;;;;;5.40;2.60;;;;;;;17.10;30.16;100328.88;5076667;28;20036;-75
2022/04/12 10:03:18;;;;;;;5.78;2.42;;;;;;;17.17;30.34;100325.25;5075631;28;20040;-75
2022/04/12 10:05:44;;;;;;;5.05;2.20;;;;;;;17.33;28.58;100323.34;5077564;28;20028;-73
2022/04/12 10:08:11;;;;;;;3.83;1.77;;;;;;;17.19;29.71;100320.53;5076612;28;20183;-74
2022/04/12 10:10:40;;;;;;;4.15;2.42;;;;;;;17.02;29.44;100316.47;5075430;28;20341;-74
2022/04/12 10:13:08;;;;;;;4.40;2.10;;;;;;;17.19;29.42;100309.84;5077917;28;20031;-73
2022/04/12 10:15:33;;;;;;;5.03;2.13;;;;;;;17.28;28.89;100307.88;5080438;28;20044;-73
2022/04/12 10:17:59;;;;;;;6.57;2.38;;;;;;;17.22;29.93;100297.94;5080845;28;20115;-73
2022/04/12 10:20:26;;;;;;;4.90;2.45;;;;;;;17.16;28.91;100296.00;5080692;28;20397;-73
2022/04/12 10:22:52;;;;;;;3.28;2.17;;;;;;;17.03;28.88;100287.84;5080077;28;20040;-75
2022/04/12 10:25:22;;;;;;;7.88;2.85;;;;;;;16.53;30.99;100241.38;5078900;28;20028;-72
2022/04/12 10:27:55;;;;;;;7.30;2.10;;;;;;;16.49;29.41;100281.03;5080683;28;20040;-72
2022/04/12 10:30:22;;;;;;;3.85;2.30;;;;;;;16.41;30.78;100275.78;5080806;28;20040;-74
2022/04/12 10:33:05;;;;;;;3.10;1.90;;;;;;;16.34;29.40;100272.22;5079957;28;20031;-75
2022/04/12 10:35:46;;;;;;;3.75;2.22;;;;;;;16.54;30.26;100269.78;5082373;28;20025;-75
2022/04/12 10:38:13;;;;;;;4.40;2.28;;;;;;;16.47;29.80;100260.84;5084366;28;20039;-75
2022/04/12 10:40:49;;;;;;;9.00;2.35;;;;;;;16.58;29.07;100255.03;5083474;28;20032;-73
2022/04/12 10:43:20;;;;;;;2.70;1.88;;;;;;;16.72;30.30;100261.41;5083923;28;20028;-73
2022/04/12 10:45:48;;;;;;;7.00;2.45;;;;;;;16.81;31.03;100246.91;5083752;28;20325;-73
2022/04/12 10:48:22;;;;;;;6.70;2.30;;;;;;;16.97;29.22;100235.94;5082391;28;20405;-75
2022/04/12 10:50:50;;;;;;;4.55;2.75;;;;;;;16.89;29.88;100233.41;5083509;28;20040;-74
2022/04/12 10:53:35;;;;;;;5.35;2.15;;;;;;;16.42;29.85;100233.88;5084156;28;20036;-72
2022/04/12 10:56:12;;;;;;;3.55;2.00;;;;;;;16.38;29.30;100224.56;5082012;28;20064;-73
2022/04/12 10:58:38;;;;;;;4.07;1.95;;;;;;;16.59;28.32;100222.75;5083495;28;20360;-75
2022/04/12 11:01:08;;;;;;;4.57;2.05;;;;;;;16.70;28.64;100232.19;5081907;28;20040;-75
2022/04/12 11:03:40;;;;;;;3.58;2.10;;;;;;;16.51;28.70;100216.69;5082930;28;20113;-75
2022/04/12 11:06:13;;;;;;;2.67;1.40;;;;;;;16.33;26.08;100214.44;5081935;28;20016;-73
2022/04/12 11:08:40;;;;;;;4.18;1.40;;;;;;;16.56;27.22;100215.09;5083123;28;20036;-73
2022/04/12 11:11:06;;;;;;;6.03;1.90;;;;;;;16.69;27.23;100213.66;5082430;28;20314;-74
2022/04/12 11:13:33;;;;;;;2.40;1.40;;;;;;;16.68;26.96;100212.00;5082084;28;20097;-74
2022/04/12 11:16:11;;;;;;;3.45;2.20;;;;;;;16.66;27.04;100206.84;5082944;28;20020;-74
2022/04/12 11:19:01;;;;;;;2.75;1.90;;;;;;;16.95;28.30;100197.84;5083162;28;20042;-73
2022/04/12 11:21:56;;;;;;;8.95;2.15;;;;;;;17.15;27.37;100198.84;5082579;28;20138;-73
2022/04/12 11:24:22;;;;;;;4.13;2.10;;;;;;;17.17;25.01;100193.31;5082202;28;20028;-73
2022/04/12 11:27:09;;;;;;;6.07;1.95;;;;;;;17.09;26.60;100196.94;5083107;28;20035;-72
2022/04/12 11:29:36;;;;;;;3.40;1.95;;;;;;;16.55;26.16;100156.50;5081577;28;20098;-73